TAM3482 SBFI-SBCT
Flight info
| Callsign | TAM3482 |
|---|---|
| Flight time | 0h 47m |
| Altitude | 35000 |
| Route | KAMIL UM548 PUNTO |
| Aircraft | A320/M-SDE3FGHIRWY/LB1 |
Departure
| Time | 2026-05-09 02:03 |
|---|---|
| Airport | Cataratas International Airport (SBFI) |
Arrival
| Time | 2026-05-09 02:50 |
|---|---|
| Airport | Curitiba-Afonso Pena International Airport (SBCT) |
| Time | Latitude | Longitude | Altitude | Speed | Heading |
|---|---|---|---|---|---|
| 2026-05-09 01:45 | -25.59733 | -54.48808 | 799 ft | 0 kts | 221° |
| 2026-05-09 01:53 | -25.59727 | -54.48802 | 798 ft | 2 kts | 217° |
| 2026-05-09 01:53 | -25.59714 | -54.48790 | 798 ft | 2 kts | 221° |
| 2026-05-09 01:54 | -25.59702 | -54.48778 | 798 ft | 2 kts | 228° |
| 2026-05-09 01:54 | -25.59693 | -54.48762 | 799 ft | 2 kts | 303° |
| 2026-05-09 01:54 | -25.59698 | -54.48756 | 798 ft | 0 kts | 312° |
| 2026-05-09 01:58 | -25.59696 | -54.48759 | 798 ft | 3 kts | 312° |
| 2026-05-09 01:59 | -25.59657 | -54.48807 | 798 ft | 14 kts | 310° |
| 2026-05-09 01:59 | -25.59579 | -54.48909 | 799 ft | 19 kts | 310° |
| 2026-05-09 01:59 | -25.59489 | -54.49026 | 799 ft | 21 kts | 310° |
| 2026-05-09 01:59 | -25.59440 | -54.49053 | 799 ft | 0 kts | 19° |
| 2026-05-09 02:00 | -25.59427 | -54.49045 | 799 ft | 7 kts | 32° |
| 2026-05-09 02:00 | -25.59364 | -54.49024 | 800 ft | 13 kts | 339° |
| 2026-05-09 02:00 | -25.59276 | -54.49124 | 800 ft | 23 kts | 310° |
| 2026-05-09 02:01 | -25.59148 | -54.49289 | 796 ft | 34 kts | 310° |
| 2026-05-09 02:01 | -25.58989 | -54.49489 | 796 ft | 19 kts | 317° |
| 2026-05-09 02:01 | -25.58927 | -54.49529 | 796 ft | 10 kts | 260° |
| 2026-05-09 02:01 | -25.58966 | -54.49524 | 796 ft | 0 kts | 128° |
| 2026-05-09 02:02 | -25.58975 | -54.49511 | 796 ft | 12 kts | 127° |
| 2026-05-09 02:02 | -25.59199 | -54.49220 | 798 ft | 85 kts | 131° |
| 2026-05-09 02:02 | -25.59720 | -54.48554 | 796 ft | 141 kts | 130° |
| 2026-05-09 02:03 | -25.60408 | -54.47675 | 1178 ft | 150 kts | 131° |
| 2026-05-09 02:03 | -25.61102 | -54.46815 | 1821 ft | 149 kts | 134° |
| 2026-05-09 02:03 | -25.61814 | -54.45924 | 2192 ft | 167 kts | 133° |
| 2026-05-09 02:03 | -25.62628 | -54.44876 | 2490 ft | 190 kts | 133° |
| 2026-05-09 02:04 | -25.63540 | -54.43694 | 2862 ft | 210 kts | 133° |
| 2026-05-09 02:04 | -25.64485 | -54.42466 | 3663 ft | 213 kts | 134° |
| 2026-05-09 02:04 | -25.65453 | -54.41208 | 4516 ft | 216 kts | 134° |
| 2026-05-09 02:04 | -25.66212 | -54.39712 | 5077 ft | 239 kts | 104° |
| 2026-05-09 02:05 | -25.66063 | -54.37776 | 5495 ft | 269 kts | 75° |
| 2026-05-09 02:05 | -25.65529 | -54.35734 | 6234 ft | 279 kts | 77° |
| 2026-05-09 02:05 | -25.65091 | -54.33650 | 7068 ft | 284 kts | 78° |
| 2026-05-09 02:05 | -25.64725 | -54.31457 | 7829 ft | 293 kts | 79° |
| 2026-05-09 02:06 | -25.64415 | -54.29185 | 8570 ft | 302 kts | 79° |
| 2026-05-09 02:06 | -25.64142 | -54.26871 | 9296 ft | 311 kts | 79° |
| 2026-05-09 02:06 | -25.63880 | -54.24454 | 10000 ft | 320 kts | 79° |
| 2026-05-09 02:07 | -25.63327 | -54.19207 | 10516 ft | 366 kts | 79° |
| 2026-05-09 02:07 | -25.63019 | -54.16316 | 10690 ft | 388 kts | 79° |
| 2026-05-09 02:07 | -25.62696 | -54.13291 | 11208 ft | 397 kts | 79° |
| 2026-05-09 02:07 | -25.62370 | -54.10260 | 11811 ft | 403 kts | 78° |
| 2026-05-09 02:08 | -25.62036 | -54.07143 | 12451 ft | 409 kts | 78° |
| 2026-05-09 02:08 | -25.61700 | -54.03987 | 13085 ft | 414 kts | 78° |
| 2026-05-09 02:08 | -25.61360 | -54.00794 | 13724 ft | 419 kts | 77° |
| 2026-05-09 02:08 | -25.61014 | -53.97566 | 14277 ft | 423 kts | 78° |
| 2026-05-09 02:09 | -25.60667 | -53.94352 | 14821 ft | 427 kts | 78° |
| 2026-05-09 02:09 | -25.60308 | -53.91058 | 15339 ft | 431 kts | 78° |
| 2026-05-09 02:09 | -25.59946 | -53.87731 | 15877 ft | 436 kts | 78° |
| 2026-05-09 02:09 | -25.59581 | -53.84404 | 16403 ft | 441 kts | 78° |
| 2026-05-09 02:10 | -25.59204 | -53.81012 | 16974 ft | 445 kts | 78° |
| 2026-05-09 02:10 | -25.58951 | -53.78744 | 17339 ft | 449 kts | 79° |
| 2026-05-09 02:10 | -25.58719 | -53.75259 | 17879 ft | 457 kts | 87° |
| 2026-05-09 02:10 | -25.58750 | -53.71713 | 18393 ft | 462 kts | 88° |
| 2026-05-09 02:11 | -25.58785 | -53.68131 | 18883 ft | 466 kts | 88° |
| 2026-05-09 02:11 | -25.58814 | -53.64556 | 19385 ft | 470 kts | 87° |
| 2026-05-09 02:11 | -25.58839 | -53.60921 | 19884 ft | 473 kts | 87° |
| 2026-05-09 02:11 | -25.58861 | -53.57258 | 20374 ft | 476 kts | 87° |
| 2026-05-09 02:12 | -25.58880 | -53.53565 | 20856 ft | 479 kts | 86° |
| 2026-05-09 02:12 | -25.58897 | -53.49846 | 21309 ft | 483 kts | 86° |
| 2026-05-09 02:12 | -25.58913 | -53.46147 | 21742 ft | 486 kts | 86° |
| 2026-05-09 02:12 | -25.58929 | -53.42397 | 22171 ft | 489 kts | 86° |
| 2026-05-09 02:13 | -25.58946 | -53.38607 | 22589 ft | 492 kts | 86° |
| 2026-05-09 02:13 | -25.58963 | -53.34799 | 22997 ft | 495 kts | 86° |
| 2026-05-09 02:13 | -25.58980 | -53.31022 | 23383 ft | 498 kts | 86° |
| 2026-05-09 02:13 | -25.58995 | -53.27169 | 23747 ft | 500 kts | 86° |
| 2026-05-09 02:14 | -25.59010 | -53.23302 | 24063 ft | 502 kts | 86° |
| 2026-05-09 02:14 | -25.59025 | -53.19409 | 24426 ft | 504 kts | 86° |
| 2026-05-09 02:14 | -25.59040 | -53.15549 | 24749 ft | 506 kts | 86° |
| 2026-05-09 02:14 | -25.59051 | -53.11636 | 25061 ft | 509 kts | 85° |
| 2026-05-09 02:15 | -25.59059 | -53.07700 | 25379 ft | 511 kts | 86° |
| 2026-05-09 02:15 | -25.59065 | -53.03785 | 25693 ft | 514 kts | 86° |
| 2026-05-09 02:15 | -25.59072 | -52.99805 | 25999 ft | 517 kts | 86° |
| 2026-05-09 02:15 | -25.59076 | -52.95799 | 26353 ft | 518 kts | 86° |
| 2026-05-09 02:16 | -25.59078 | -52.91831 | 26690 ft | 521 kts | 86° |
| 2026-05-09 02:16 | -25.59081 | -52.87779 | 26954 ft | 525 kts | 86° |
| 2026-05-09 02:16 | -25.59084 | -52.83714 | 27259 ft | 527 kts | 86° |
| 2026-05-09 02:16 | -25.59087 | -52.79676 | 27562 ft | 530 kts | 86° |
| 2026-05-09 02:17 | -25.59089 | -52.75550 | 27845 ft | 532 kts | 86° |
| 2026-05-09 02:17 | -25.59091 | -52.71487 | 28231 ft | 532 kts | 86° |
| 2026-05-09 02:17 | -25.59091 | -52.67375 | 28696 ft | 530 kts | 86° |
| 2026-05-09 02:17 | -25.59091 | -52.63277 | 29138 ft | 530 kts | 86° |
| 2026-05-09 02:18 | -25.59091 | -52.59236 | 29559 ft | 529 kts | 86° |
| 2026-05-09 02:18 | -25.59087 | -52.55153 | 30008 ft | 529 kts | 86° |
| 2026-05-09 02:18 | -25.59082 | -52.51066 | 30391 ft | 528 kts | 85° |
| 2026-05-09 02:18 | -25.59076 | -52.46993 | 30825 ft | 526 kts | 85° |
| 2026-05-09 02:19 | -25.59069 | -52.42993 | 31252 ft | 524 kts | 85° |
| 2026-05-09 02:19 | -25.59060 | -52.38958 | 31680 ft | 522 kts | 85° |
| 2026-05-09 02:19 | -25.59048 | -52.34928 | 32122 ft | 521 kts | 85° |
| 2026-05-09 02:19 | -25.59038 | -52.30948 | 32555 ft | 519 kts | 85° |
| 2026-05-09 02:20 | -25.59026 | -52.26945 | 32967 ft | 517 kts | 85° |
| 2026-05-09 02:20 | -25.59013 | -52.22932 | 33410 ft | 516 kts | 85° |
| 2026-05-09 02:20 | -25.59000 | -52.19009 | 33834 ft | 515 kts | 85° |
| 2026-05-09 02:20 | -25.58983 | -52.15044 | 34240 ft | 514 kts | 84° |
| 2026-05-09 02:21 | -25.58962 | -52.11072 | 34604 ft | 513 kts | 84° |
| 2026-05-09 02:21 | -25.58939 | -52.07167 | 34906 ft | 514 kts | 84° |
| 2026-05-09 02:21 | -25.58917 | -52.03194 | 34988 ft | 515 kts | 84° |
| 2026-05-09 02:22 | -25.58877 | -51.95214 | 35019 ft | 518 kts | 84° |
| 2026-05-09 02:22 | -25.58839 | -51.87253 | 35019 ft | 518 kts | 84° |
| 2026-05-09 02:23 | -25.58792 | -51.79270 | 34991 ft | 517 kts | 84° |
| 2026-05-09 02:23 | -25.58734 | -51.71300 | 35010 ft | 516 kts | 84° |
| 2026-05-09 02:24 | -25.58673 | -51.63357 | 35022 ft | 516 kts | 84° |
| 2026-05-09 02:24 | -25.58620 | -51.55424 | 35007 ft | 516 kts | 85° |
| 2026-05-09 02:25 | -25.58559 | -51.47484 | 35022 ft | 515 kts | 84° |
| 2026-05-09 02:25 | -25.58489 | -51.39589 | 35016 ft | 514 kts | 84° |
| 2026-05-09 02:26 | -25.58413 | -51.31674 | 35021 ft | 513 kts | 85° |
| 2026-05-09 02:26 | -25.58331 | -51.23744 | 35017 ft | 513 kts | 84° |
| 2026-05-09 02:27 | -25.58243 | -51.15870 | 35006 ft | 513 kts | 84° |
| 2026-05-09 02:27 | -25.58163 | -51.07932 | 35001 ft | 513 kts | 84° |
| 2026-05-09 02:28 | -25.58083 | -51.00059 | 34994 ft | 513 kts | 84° |
| 2026-05-09 02:28 | -25.57985 | -50.92143 | 34995 ft | 513 kts | 84° |
| 2026-05-09 02:29 | -25.57879 | -50.84230 | 34971 ft | 513 kts | 84° |
| 2026-05-09 02:29 | -25.57770 | -50.76366 | 34972 ft | 513 kts | 84° |
| 2026-05-09 02:30 | -25.57666 | -50.68455 | 34964 ft | 512 kts | 84° |
| 2026-05-09 02:30 | -25.57555 | -50.60609 | 34966 ft | 512 kts | 85° |
| 2026-05-09 02:31 | -25.57437 | -50.52741 | 34966 ft | 512 kts | 85° |
| 2026-05-09 02:31 | -25.57308 | -50.44845 | 34986 ft | 512 kts | 84° |
| 2026-05-09 02:32 | -25.57177 | -50.36959 | 34963 ft | 511 kts | 84° |
| 2026-05-09 02:32 | -25.57052 | -50.29112 | 34960 ft | 511 kts | 84° |
| 2026-05-09 02:33 | -25.56923 | -50.21274 | 34741 ft | 502 kts | 84° |
| 2026-05-09 02:33 | -25.56860 | -50.17433 | 34504 ft | 492 kts | 84° |
| 2026-05-09 02:33 | -25.56800 | -50.13682 | 34252 ft | 484 kts | 84° |
| 2026-05-09 02:33 | -25.56817 | -50.09959 | 33849 ft | 483 kts | 91° |
| 2026-05-09 02:34 | -25.57390 | -50.06342 | 33283 ft | 481 kts | 104° |
| 2026-05-09 02:34 | -25.58609 | -50.02912 | 32464 ft | 478 kts | 118° |
| 2026-05-09 02:34 | -25.60375 | -49.99814 | 31662 ft | 472 kts | 124° |
| 2026-05-09 02:34 | -25.62213 | -49.96803 | 30882 ft | 467 kts | 124° |
| 2026-05-09 02:35 | -25.64030 | -49.93837 | 30173 ft | 462 kts | 125° |
| 2026-05-09 02:35 | -25.65811 | -49.90936 | 29380 ft | 458 kts | 125° |
| 2026-05-09 02:35 | -25.67589 | -49.88036 | 28618 ft | 452 kts | 125° |
| 2026-05-09 02:35 | -25.69350 | -49.85163 | 27885 ft | 447 kts | 124° |
| 2026-05-09 02:36 | -25.71092 | -49.82317 | 27197 ft | 442 kts | 124° |
| 2026-05-09 02:36 | -25.72808 | -49.79509 | 26521 ft | 437 kts | 124° |
| 2026-05-09 02:36 | -25.74502 | -49.76739 | 25854 ft | 431 kts | 124° |
| 2026-05-09 02:36 | -25.76180 | -49.73998 | 25170 ft | 426 kts | 124° |
| 2026-05-09 02:37 | -25.77836 | -49.71288 | 24509 ft | 422 kts | 125° |
| 2026-05-09 02:37 | -25.79474 | -49.68603 | 23866 ft | 417 kts | 124° |
| 2026-05-09 02:37 | -25.81090 | -49.65952 | 23148 ft | 413 kts | 124° |
| 2026-05-09 02:37 | -25.82667 | -49.63361 | 22399 ft | 408 kts | 124° |
| 2026-05-09 02:38 | -25.84243 | -49.60771 | 21643 ft | 404 kts | 124° |
| 2026-05-09 02:38 | -25.85813 | -49.58190 | 20920 ft | 400 kts | 124° |
| 2026-05-09 02:38 | -25.87361 | -49.55639 | 20204 ft | 397 kts | 124° |
| 2026-05-09 02:38 | -25.88897 | -49.53110 | 19528 ft | 393 kts | 124° |
| 2026-05-09 02:39 | -25.90424 | -49.50596 | 18854 ft | 390 kts | 124° |
| 2026-05-09 02:39 | -25.91936 | -49.48105 | 18204 ft | 386 kts | 124° |
| 2026-05-09 02:39 | -25.93429 | -49.45640 | 17462 ft | 383 kts | 122° |
| 2026-05-09 02:39 | -25.94559 | -49.43008 | 16725 ft | 376 kts | 103° |
| 2026-05-09 02:40 | -25.94916 | -49.40191 | 15752 ft | 371 kts | 82° |
| 2026-05-09 02:40 | -25.94464 | -49.37405 | 14820 ft | 362 kts | 63° |
| 2026-05-09 02:40 | -25.93319 | -49.34964 | 13943 ft | 349 kts | 45° |
| 2026-05-09 02:40 | -25.91721 | -49.33001 | 13032 ft | 340 kts | 37° |
| 2026-05-09 02:41 | -25.90090 | -49.31153 | 12135 ft | 339 kts | 37° |
| 2026-05-09 02:41 | -25.88441 | -49.29281 | 11235 ft | 336 kts | 37° |
| 2026-05-09 02:41 | -25.86778 | -49.27399 | 10381 ft | 345 kts | 38° |
| 2026-05-09 02:41 | -25.85072 | -49.25476 | 9491 ft | 354 kts | 37° |
| 2026-05-09 02:42 | -25.83334 | -49.23515 | 8770 ft | 355 kts | 38° |
| 2026-05-09 02:42 | -25.81645 | -49.21584 | 8486 ft | 342 kts | 38° |
| 2026-05-09 02:42 | -25.80040 | -49.19743 | 8225 ft | 329 kts | 38° |
| 2026-05-09 02:42 | -25.78467 | -49.17942 | 7964 ft | 320 kts | 38° |
| 2026-05-09 02:43 | -25.76950 | -49.16208 | 7688 ft | 303 kts | 37° |
| 2026-05-09 02:43 | -25.75540 | -49.14592 | 7466 ft | 281 kts | 36° |
| 2026-05-09 02:43 | -25.74222 | -49.13092 | 7247 ft | 262 kts | 35° |
| 2026-05-09 02:43 | -25.73005 | -49.11712 | 7038 ft | 245 kts | 34° |
| 2026-05-09 02:44 | -25.71846 | -49.10414 | 6864 ft | 229 kts | 33° |
| 2026-05-09 02:44 | -25.70734 | -49.09219 | 6658 ft | 216 kts | 31° |
| 2026-05-09 02:44 | -25.69680 | -49.08101 | 6498 ft | 201 kts | 31° |
| 2026-05-09 02:44 | -25.68718 | -49.07079 | 6307 ft | 185 kts | 31° |
| 2026-05-09 02:45 | -25.67829 | -49.06134 | 6121 ft | 169 kts | 30° |
| 2026-05-09 02:45 | -25.67015 | -49.05304 | 6011 ft | 150 kts | 20° |
| 2026-05-09 02:45 | -25.66131 | -49.04822 | 5973 ft | 135 kts | 4° |
| 2026-05-09 02:45 | -25.65203 | -49.04721 | 5915 ft | 135 kts | 347° |
| 2026-05-09 02:46 | -25.64290 | -49.04988 | 5868 ft | 141 kts | 332° |
| 2026-05-09 02:46 | -25.63487 | -49.05635 | 5693 ft | 146 kts | 315° |
| 2026-05-09 02:46 | -25.62798 | -49.06442 | 5524 ft | 145 kts | 317° |
| 2026-05-09 02:46 | -25.62084 | -49.07232 | 5341 ft | 144 kts | 315° |
| 2026-05-09 02:47 | -25.61376 | -49.08017 | 5158 ft | 143 kts | 317° |
| 2026-05-09 02:47 | -25.60683 | -49.08792 | 4991 ft | 142 kts | 316° |
| 2026-05-09 02:47 | -25.59987 | -49.09573 | 4808 ft | 142 kts | 316° |
| 2026-05-09 02:47 | -25.59300 | -49.10343 | 4628 ft | 141 kts | 316° |
| 2026-05-09 02:48 | -25.58632 | -49.11093 | 4436 ft | 127 kts | 316° |
| 2026-05-09 02:48 | -25.58024 | -49.11775 | 4270 ft | 127 kts | 316° |
| 2026-05-09 02:48 | -25.57408 | -49.12465 | 4111 ft | 124 kts | 318° |
| 2026-05-09 02:48 | -25.56800 | -49.13147 | 3950 ft | 124 kts | 316° |
| 2026-05-09 02:49 | -25.56184 | -49.13837 | 3787 ft | 130 kts | 315° |
| 2026-05-09 02:49 | -25.55536 | -49.14563 | 3596 ft | 139 kts | 318° |
| 2026-05-09 02:49 | -25.54847 | -49.15334 | 3399 ft | 139 kts | 318° |
| 2026-05-09 02:49 | -25.54164 | -49.16094 | 3245 ft | 141 kts | 316° |
| 2026-05-09 02:50 | -25.53489 | -49.16868 | 3000 ft | 135 kts | 319° |
| 2026-05-09 02:50 | -25.52914 | -49.17498 | 2990 ft | 93 kts | 315° |
| 2026-05-09 02:50 | -25.52586 | -49.17870 | 2989 ft | 47 kts | 315° |
| 2026-05-09 02:50 | -25.52426 | -49.18026 | 2993 ft | 16 kts | 312° |
| 2026-05-09 02:51 | -25.52428 | -49.18053 | 2993 ft | 2 kts | 166° |
| 2026-05-09 02:51 | -25.52441 | -49.18034 | 2993 ft | 6 kts | 129° |
| 2026-05-09 02:51 | -25.52473 | -49.18009 | 2992 ft | 6 kts | 158° |
| 2026-05-09 02:51 | -25.52533 | -49.18004 | 2992 ft | 10 kts | 179° |
| 2026-05-09 02:52 | -25.52594 | -49.18003 | 2991 ft | 8 kts | 178° |
| 2026-05-09 02:52 | -25.52646 | -49.18000 | 2990 ft | 7 kts | 178° |
| 2026-05-09 02:52 | -25.52698 | -49.17998 | 2988 ft | 8 kts | 177° |
| 2026-05-09 02:52 | -25.52747 | -49.17995 | 2986 ft | 7 kts | 178° |
| 2026-05-09 02:53 | -25.52807 | -49.17994 | 2985 ft | 11 kts | 178° |
| 2026-05-09 02:53 | -25.52876 | -49.17972 | 2984 ft | 9 kts | 143° |
| 2026-05-09 02:53 | -25.52915 | -49.17931 | 2985 ft | 10 kts | 137° |
| 2026-05-09 02:53 | -25.52965 | -49.17878 | 2985 ft | 9 kts | 127° |
| 2026-05-09 02:54 | -25.52979 | -49.17793 | 2986 ft | 13 kts | 91° |
| 2026-05-09 02:54 | -25.52982 | -49.17687 | 2987 ft | 13 kts | 92° |
| 2026-05-09 02:54 | -25.53013 | -49.17616 | 2989 ft | 9 kts | 137° |
| 2026-05-09 02:54 | -25.53059 | -49.17565 | 2991 ft | 11 kts | 134° |
| 2026-05-09 02:55 | -25.53134 | -49.17480 | 2992 ft | 20 kts | 135° |
| 2026-05-09 02:55 | -25.53237 | -49.17366 | 2993 ft | 21 kts | 135° |
| 2026-05-09 02:55 | -25.53335 | -49.17256 | 2993 ft | 16 kts | 134° |
| 2026-05-09 02:55 | -25.53373 | -49.17250 | 2992 ft | 3 kts | 231° |
| 2026-05-09 02:56 | -25.53388 | -49.17267 | 2992 ft | 3 kts | 226° |
| 2026-05-09 02:56 | -25.53404 | -49.17285 | 2992 ft | 3 kts | 225° |
| 2026-05-09 02:56 | -25.53418 | -49.17301 | 2992 ft | 2 kts | 224° |
| 2026-05-09 02:56 | -25.53422 | -49.17304 | 2992 ft | 0 kts | 224° |
| 2026-05-09 02:57 | -25.53432 | -49.17315 | 2993 ft | 7 kts | 225° |
| 2026-05-09 02:57 | -25.53455 | -49.17341 | 2993 ft | 0 kts | 225° |
| 2026-05-09 02:58 | -25.53454 | -49.17341 | 2993 ft | 0 kts | 225° |